RJFU(METAR)
08/12 21:00
METAR RJFU 121200Z 11004KT 9999 FEW050 SCT080 BKN/// 27/26 Q1008 RMK
1SC050 3AC080 A2977=
戻る
トップページへ戻る
IMOC Co,.Ltd.